METAR Data
IDs: Format: Raw Decoded Include TAF

Data at: 1115 UTC 23 Jun 2021

METAR for:LFQQ (Lille/Lesquin Arpt, HD, FR)
Text:LFQQ 231100Z AUTO 03010KT 360V100 9999 FEW024 BKN035 BKN047 15/09 Q1022 NOSIG
Temperature: 15.0°C ( 59°F)
Dewpoint: 9.0°C ( 48°F) [RH = 67%]
Pressure (altimeter):30.18 inches Hg (1022.0 mb)
Winds:from the NNE (30 degrees) at 12 MPH (10 knots; 5.1 m/s)
Visibility:6 or more sm (10+ km)
Ceiling:3500 feet AGL
Clouds: few clouds at 2400 feet AGL, broken clouds at 3500 feet AGL, broken clouds at 4700 feet AGL

TAF for:LFQQ (Lille/Lesquin Arpt, HD, FR) issued at 0500 UTC 23 Jun 2021
Text:TAF LFQQ 230500Z 2306/2412 01007KT 9999 SCT030 BKN050
Forecast period:0600 UTC 23 June 2021 to 1200 UTC 24 June 2021
Forecast type:FROM: standard forecast or significant change
Winds:from the N (10 degrees) at 8 MPH (7 knots; 3.6 m/s)
Visibility:6 or more sm (10+ km)
Ceiling:5000 feet AGL
Clouds: scattered clouds at 3000 feet AGL, broken clouds at 5000 feet AGL